sensor_id;sensor_type;location;lat;lon;timestamp;P1;durP1;ratioP1;P2;durP2;ratioP2
16854;SDS011;8543;54.522;18.550;2023-05-10T00:00:37;8.60;;;4.40;;
16854;SDS011;8543;54.522;18.550;2023-05-10T00:03:02;9.70;;;4.30;;
16854;SDS011;8543;54.522;18.550;2023-05-10T00:05:30;8.10;;;4.50;;
16854;SDS011;8543;54.522;18.550;2023-05-10T00:07:55;7.80;;;4.30;;
16854;SDS011;8543;54.522;18.550;2023-05-10T00:10:21;6.90;;;4.50;;
16854;SDS011;8543;54.522;18.550;2023-05-10T00:12:46;7.20;;;4.00;;
16854;SDS011;8543;54.522;18.550;2023-05-10T00:15:12;8.60;;;4.40;;
16854;SDS011;8543;54.522;18.550;2023-05-10T00:17:37;7.10;;;4.30;;
16854;SDS011;8543;54.522;18.550;2023-05-10T00:20:03;7.40;;;4.90;;
16854;SDS011;8543;54.522;18.550;2023-05-10T00:22:30;7.00;;;4.30;;
16854;SDS011;8543;54.522;18.550;2023-05-10T00:24:56;6.00;;;4.00;;
16854;SDS011;8543;54.522;18.550;2023-05-10T00:27:21;7.30;;;4.10;;
16854;SDS011;8543;54.522;18.550;2023-05-10T00:29:46;6.80;;;4.50;;
16854;SDS011;8543;54.522;18.550;2023-05-10T00:32:12;6.40;;;3.90;;
16854;SDS011;8543;54.522;18.550;2023-05-10T00:34:38;8.30;;;5.20;;
16854;SDS011;8543;54.522;18.550;2023-05-10T00:37:04;7.40;;;4.90;;
16854;SDS011;8543;54.522;18.550;2023-05-10T00:39:30;8.20;;;4.40;;
16854;SDS011;8543;54.522;18.550;2023-05-10T00:41:56;7.60;;;4.80;;
16854;SDS011;8543;54.522;18.550;2023-05-10T00:44:21;8.30;;;4.40;;
16854;SDS011;8543;54.522;18.550;2023-05-10T00:46:47;6.90;;;4.10;;
16854;SDS011;8543;54.522;18.550;2023-05-10T00:49:13;7.70;;;4.40;;
16854;SDS011;8543;54.522;18.550;2023-05-10T00:51:39;9.40;;;4.50;;
16854;SDS011;8543;54.522;18.550;2023-05-10T00:54:04;8.70;;;4.70;;
16854;SDS011;8543;54.522;18.550;2023-05-10T00:56:30;7.50;;;4.90;;
16854;SDS011;8543;54.522;18.550;2023-05-10T00:58:56;8.40;;;4.50;;
16854;SDS011;8543;54.522;18.550;2023-05-10T01:01:22;8.60;;;4.50;;
16854;SDS011;8543;54.522;18.550;2023-05-10T01:03:47;8.20;;;4.30;;
16854;SDS011;8543;54.522;18.550;2023-05-10T01:06:13;8.80;;;4.90;;
16854;SDS011;8543;54.522;18.550;2023-05-10T01:08:39;6.90;;;4.60;;
16854;SDS011;8543;54.522;18.550;2023-05-10T01:11:04;8.90;;;4.20;;
16854;SDS011;8543;54.522;18.550;2023-05-10T01:15:57;10.20;;;5.20;;
16854;SDS011;8543;54.522;18.550;2023-05-10T01:18:23;7.20;;;4.70;;
16854;SDS011;8543;54.522;18.550;2023-05-10T01:20:52;8.80;;;4.40;;
16854;SDS011;8543;54.522;18.550;2023-05-10T01:23:45;7.50;;;4.10;;
16854;SDS011;8543;54.522;18.550;2023-05-10T01:34:26;7.00;;;4.60;;
16854;SDS011;8543;54.522;18.550;2023-05-10T01:37:02;9.50;;;4.70;;
16854;SDS011;8543;54.522;18.550;2023-05-10T01:40:17;7.20;;;4.80;;
16854;SDS011;8543;54.522;18.550;2023-05-10T01:42:50;7.40;;;4.00;;
16854;SDS011;8543;54.522;18.550;2023-05-10T01:45:27;10.10;;;4.50;;
16854;SDS011;8543;54.522;18.550;2023-05-10T01:48:05;6.50;;;4.70;;
16854;SDS011;8543;54.522;18.550;2023-05-10T01:50:32;7.40;;;4.20;;
16854;SDS011;8543;54.522;18.550;2023-05-10T01:53:00;7.70;;;4.20;;
16854;SDS011;8543;54.522;18.550;2023-05-10T01:55:29;6.40;;;4.10;;
16854;SDS011;8543;54.522;18.550;2023-05-10T01:58:03;7.20;;;4.30;;
16854;SDS011;8543;54.522;18.550;2023-05-10T02:00:31;6.60;;;4.40;;
16854;SDS011;8543;54.522;18.550;2023-05-10T02:02:57;6.60;;;4.60;;
16854;SDS011;8543;54.522;18.550;2023-05-10T02:05:25;6.00;;;4.10;;
16854;SDS011;8543;54.522;18.550;2023-05-10T02:07:52;7.60;;;4.70;;
16854;SDS011;8543;54.522;18.550;2023-05-10T02:10:18;9.90;;;4.70;;
16854;SDS011;8543;54.522;18.550;2023-05-10T02:12:45;7.40;;;4.30;;
16854;SDS011;8543;54.522;18.550;2023-05-10T02:15:13;6.00;;;4.40;;
16854;SDS011;8543;54.522;18.550;2023-05-10T02:17:42;8.20;;;4.40;;
16854;SDS011;8543;54.522;18.550;2023-05-10T02:20:08;8.00;;;4.50;;
16854;SDS011;8543;54.522;18.550;2023-05-10T02:22:35;8.70;;;4.10;;
16854;SDS011;8543;54.522;18.550;2023-05-10T02:25:01;6.20;;;3.90;;
16854;SDS011;8543;54.522;18.550;2023-05-10T02:27:28;7.50;;;4.60;;
16854;SDS011;8543;54.522;18.550;2023-05-10T02:29:54;7.80;;;4.50;;
16854;SDS011;8543;54.522;18.550;2023-05-10T02:32:20;7.30;;;4.10;;
16854;SDS011;8543;54.522;18.550;2023-05-10T02:34:46;8.90;;;4.40;;
16854;SDS011;8543;54.522;18.550;2023-05-10T02:37:16;7.30;;;4.40;;
16854;SDS011;8543;54.522;18.550;2023-05-10T02:39:52;7.70;;;4.50;;
16854;SDS011;8543;54.522;18.550;2023-05-10T02:42:19;10.30;;;4.80;;
16854;SDS011;8543;54.522;18.550;2023-05-10T02:44:50;8.50;;;4.80;;
16854;SDS011;8543;54.522;18.550;2023-05-10T02:47:18;7.50;;;4.00;;
16854;SDS011;8543;54.522;18.550;2023-05-10T02:49:44;6.90;;;4.50;;
16854;SDS011;8543;54.522;18.550;2023-05-10T02:52:09;6.70;;;3.90;;
16854;SDS011;8543;54.522;18.550;2023-05-10T02:54:41;8.80;;;4.90;;
16854;SDS011;8543;54.522;18.550;2023-05-10T02:57:09;7.00;;;4.80;;
16854;SDS011;8543;54.522;18.550;2023-05-10T02:59:41;6.90;;;4.80;;
16854;SDS011;8543;54.522;18.550;2023-05-10T03:02:08;6.60;;;4.30;;
16854;SDS011;8543;54.522;18.550;2023-05-10T03:04:34;7.70;;;4.30;;
16854;SDS011;8543;54.522;18.550;2023-05-10T03:06:59;8.00;;;4.80;;
16854;SDS011;8543;54.522;18.550;2023-05-10T03:09:25;8.00;;;4.70;;
16854;SDS011;8543;54.522;18.550;2023-05-10T03:20:06;7.70;;;4.70;;
16854;SDS011;8543;54.522;18.550;2023-05-10T03:22:38;7.80;;;4.90;;
16854;SDS011;8543;54.522;18.550;2023-05-10T03:25:06;8.40;;;4.60;;
16854;SDS011;8543;54.522;18.550;2023-05-10T03:27:33;8.00;;;4.90;;
16854;SDS011;8543;54.522;18.550;2023-05-10T03:29:59;6.50;;;4.40;;
16854;SDS011;8543;54.522;18.550;2023-05-10T03:32:26;6.70;;;5.20;;
16854;SDS011;8543;54.522;18.550;2023-05-10T03:34:54;10.40;;;4.60;;
16854;SDS011;8543;54.522;18.550;2023-05-10T03:37:19;8.00;;;5.00;;
16854;SDS011;8543;54.522;18.550;2023-05-10T03:39:45;6.80;;;4.50;;
16854;SDS011;8543;54.522;18.550;2023-05-10T03:42:10;8.30;;;5.00;;
16854;SDS011;8543;54.522;18.550;2023-05-10T03:44:37;7.30;;;4.90;;
16854;SDS011;8543;54.522;18.550;2023-05-10T03:47:04;7.70;;;4.50;;
16854;SDS011;8543;54.522;18.550;2023-05-10T03:49:29;7.90;;;5.20;;
16854;SDS011;8543;54.522;18.550;2023-05-10T03:51:54;6.90;;;4.70;;
16854;SDS011;8543;54.522;18.550;2023-05-10T03:54:20;6.70;;;4.40;;
16854;SDS011;8543;54.522;18.550;2023-05-10T03:56:45;8.30;;;4.80;;
16854;SDS011;8543;54.522;18.550;2023-05-10T03:59:12;7.90;;;4.50;;
16854;SDS011;8543;54.522;18.550;2023-05-10T04:01:38;10.50;;;4.80;;
16854;SDS011;8543;54.522;18.550;2023-05-10T04:04:03;7.60;;;4.50;;
16854;SDS011;8543;54.522;18.550;2023-05-10T04:06:29;7.10;;;4.90;;
16854;SDS011;8543;54.522;18.550;2023-05-10T04:08:54;7.70;;;5.00;;
16854;SDS011;8543;54.522;18.550;2023-05-10T04:11:20;8.50;;;5.30;;
16854;SDS011;8543;54.522;18.550;2023-05-10T04:13:47;8.90;;;5.20;;
16854;SDS011;8543;54.522;18.550;2023-05-10T04:16:12;9.20;;;4.70;;
16854;SDS011;8543;54.522;18.550;2023-05-10T04:18:38;9.20;;;4.70;;
16854;SDS011;8543;54.522;18.550;2023-05-10T04:21:10;6.70;;;4.90;;
16854;SDS011;8543;54.522;18.550;2023-05-10T04:23:37;8.50;;;4.90;;
16854;SDS011;8543;54.522;18.550;2023-05-10T04:26:02;7.20;;;4.30;;
16854;SDS011;8543;54.522;18.550;2023-05-10T04:28:28;6.20;;;4.00;;
16854;SDS011;8543;54.522;18.550;2023-05-10T04:30:59;9.40;;;5.30;;
16854;SDS011;8543;54.522;18.550;2023-05-10T04:33:26;8.60;;;5.10;;
16854;SDS011;8543;54.522;18.550;2023-05-10T04:35:51;9.40;;;5.50;;
16854;SDS011;8543;54.522;18.550;2023-05-10T04:38:17;7.30;;;5.10;;
16854;SDS011;8543;54.522;18.550;2023-05-10T04:40:42;8.60;;;5.40;;
16854;SDS011;8543;54.522;18.550;2023-05-10T04:43:08;8.30;;;4.70;;
16854;SDS011;8543;54.522;18.550;2023-05-10T04:45:33;9.10;;;5.60;;
16854;SDS011;8543;54.522;18.550;2023-05-10T04:47:58;6.40;;;4.90;;
16854;SDS011;8543;54.522;18.550;2023-05-10T04:50:24;7.10;;;4.90;;
16854;SDS011;8543;54.522;18.550;2023-05-10T04:52:49;8.30;;;4.90;;
16854;SDS011;8543;54.522;18.550;2023-05-10T04:55:15;7.30;;;5.40;;
16854;SDS011;8543;54.522;18.550;2023-05-10T04:57:41;8.50;;;5.10;;
16854;SDS011;8543;54.522;18.550;2023-05-10T05:00:06;6.60;;;5.00;;
16854;SDS011;8543;54.522;18.550;2023-05-10T05:02:32;9.10;;;4.90;;
16854;SDS011;8543;54.522;18.550;2023-05-10T05:04:57;8.00;;;5.10;;
16854;SDS011;8543;54.522;18.550;2023-05-10T05:07:23;7.70;;;5.10;;
16854;SDS011;8543;54.522;18.550;2023-05-10T05:09:48;6.60;;;5.30;;
16854;SDS011;8543;54.522;18.550;2023-05-10T05:12:14;7.70;;;5.00;;
16854;SDS011;8543;54.522;18.550;2023-05-10T05:14:39;9.70;;;5.20;;
16854;SDS011;8543;54.522;18.550;2023-05-10T05:17:06;7.30;;;5.30;;
16854;SDS011;8543;54.522;18.550;2023-05-10T05:19:31;8.70;;;5.30;;
16854;SDS011;8543;54.522;18.550;2023-05-10T05:21:57;7.70;;;5.40;;
16854;SDS011;8543;54.522;18.550;2023-05-10T05:24:22;6.60;;;5.40;;
16854;SDS011;8543;54.522;18.550;2023-05-10T05:26:48;7.20;;;5.30;;
16854;SDS011;8543;54.522;18.550;2023-05-10T05:29:13;8.50;;;5.50;;
16854;SDS011;8543;54.522;18.550;2023-05-10T05:31:39;9.00;;;5.70;;
16854;SDS011;8543;54.522;18.550;2023-05-10T05:34:04;9.80;;;5.50;;
16854;SDS011;8543;54.522;18.550;2023-05-10T05:36:29;9.20;;;5.60;;
16854;SDS011;8543;54.522;18.550;2023-05-10T05:38:56;9.10;;;5.70;;
16854;SDS011;8543;54.522;18.550;2023-05-10T05:41:22;7.00;;;5.60;;
16854;SDS011;8543;54.522;18.550;2023-05-10T05:43:49;9.80;;;5.70;;
16854;SDS011;8543;54.522;18.550;2023-05-10T05:46:14;8.20;;;5.50;;
16854;SDS011;8543;54.522;18.550;2023-05-10T05:48:40;8.60;;;5.70;;
16854;SDS011;8543;54.522;18.550;2023-05-10T05:51:05;7.80;;;5.70;;
16854;SDS011;8543;54.522;18.550;2023-05-10T05:53:30;10.20;;;5.60;;
16854;SDS011;8543;54.522;18.550;2023-05-10T05:55:57;7.90;;;5.60;;
16854;SDS011;8543;54.522;18.550;2023-05-10T05:58:23;9.10;;;5.90;;
16854;SDS011;8543;54.522;18.550;2023-05-10T06:00:50;7.50;;;5.70;;
16854;SDS011;8543;54.522;18.550;2023-05-10T06:03:17;7.90;;;5.40;;
16854;SDS011;8543;54.522;18.550;2023-05-10T06:05:43;7.40;;;5.50;;
16854;SDS011;8543;54.522;18.550;2023-05-10T06:08:08;8.90;;;5.80;;
16854;SDS011;8543;54.522;18.550;2023-05-10T06:10:34;8.10;;;5.40;;
16854;SDS011;8543;54.522;18.550;2023-05-10T06:13:00;7.40;;;5.40;;
16854;SDS011;8543;54.522;18.550;2023-05-10T06:15:25;7.80;;;5.30;;
16854;SDS011;8543;54.522;18.550;2023-05-10T06:17:51;7.50;;;5.10;;
16854;SDS011;8543;54.522;18.550;2023-05-10T06:20:16;7.80;;;5.50;;
16854;SDS011;8543;54.522;18.550;2023-05-10T06:22:42;7.50;;;5.40;;
16854;SDS011;8543;54.522;18.550;2023-05-10T06:25:07;6.80;;;5.10;;
16854;SDS011;8543;54.522;18.550;2023-05-10T06:27:33;8.20;;;5.70;;
16854;SDS011;8543;54.522;18.550;2023-05-10T06:29:59;8.00;;;5.50;;
16854;SDS011;8543;54.522;18.550;2023-05-10T06:32:24;7.30;;;5.70;;
16854;SDS011;8543;54.522;18.550;2023-05-10T06:34:50;8.00;;;5.90;;
16854;SDS011;8543;54.522;18.550;2023-05-10T06:37:16;7.40;;;5.40;;
16854;SDS011;8543;54.522;18.550;2023-05-10T06:39:41;7.50;;;6.00;;
16854;SDS011;8543;54.522;18.550;2023-05-10T06:42:06;7.20;;;5.50;;
16854;SDS011;8543;54.522;18.550;2023-05-10T06:44:32;7.80;;;5.60;;
16854;SDS011;8543;54.522;18.550;2023-05-10T06:46:58;8.20;;;5.80;;
16854;SDS011;8543;54.522;18.550;2023-05-10T06:49:23;6.60;;;5.40;;
16854;SDS011;8543;54.522;18.550;2023-05-10T06:51:49;8.40;;;5.50;;
16854;SDS011;8543;54.522;18.550;2023-05-10T06:54:14;9.00;;;5.70;;
16854;SDS011;8543;54.522;18.550;2023-05-10T06:56:39;11.10;;;5.60;;
16854;SDS011;8543;54.522;18.550;2023-05-10T06:59:05;8.00;;;5.40;;
16854;SDS011;8543;54.522;18.550;2023-05-10T07:01:30;9.20;;;5.50;;
16854;SDS011;8543;54.522;18.550;2023-05-10T07:03:56;7.90;;;5.40;;
16854;SDS011;8543;54.522;18.550;2023-05-10T07:06:21;11.10;;;5.60;;
16854;SDS011;8543;54.522;18.550;2023-05-10T07:08:47;7.60;;;5.20;;
16854;SDS011;8543;54.522;18.550;2023-05-10T07:11:12;12.10;;;5.20;;
16854;SDS011;8543;54.522;18.550;2023-05-10T07:13:37;8.00;;;5.40;;
16854;SDS011;8543;54.522;18.550;2023-05-10T07:16:06;7.50;;;4.90;;
16854;SDS011;8543;54.522;18.550;2023-05-10T07:18:32;7.80;;;5.40;;
16854;SDS011;8543;54.522;18.550;2023-05-10T07:20:58;8.10;;;5.10;;
16854;SDS011;8543;54.522;18.550;2023-05-10T07:23:23;9.20;;;5.50;;
16854;SDS011;8543;54.522;18.550;2023-05-10T07:25:49;8.10;;;5.10;;
16854;SDS011;8543;54.522;18.550;2023-05-10T07:28:16;8.00;;;5.20;;
16854;SDS011;8543;54.522;18.550;2023-05-10T07:30:42;8.40;;;5.30;;
16854;SDS011;8543;54.522;18.550;2023-05-10T07:33:08;7.60;;;5.50;;
16854;SDS011;8543;54.522;18.550;2023-05-10T07:35:34;6.20;;;5.20;;
16854;SDS011;8543;54.522;18.550;2023-05-10T07:37:59;8.00;;;5.20;;
16854;SDS011;8543;54.522;18.550;2023-05-10T07:40:25;7.70;;;5.00;;
16854;SDS011;8543;54.522;18.550;2023-05-10T07:42:50;6.80;;;5.00;;
16854;SDS011;8543;54.522;18.550;2023-05-10T07:45:16;7.00;;;5.20;;
16854;SDS011;8543;54.522;18.550;2023-05-10T07:47:41;8.90;;;5.00;;
16854;SDS011;8543;54.522;18.550;2023-05-10T07:50:07;7.60;;;4.70;;
16854;SDS011;8543;54.522;18.550;2023-05-10T07:52:33;7.40;;;4.80;;
16854;SDS011;8543;54.522;18.550;2023-05-10T07:54:58;8.70;;;4.70;;
16854;SDS011;8543;54.522;18.550;2023-05-10T07:57:23;7.20;;;4.20;;
16854;SDS011;8543;54.522;18.550;2023-05-10T07:59:49;6.20;;;4.80;;
16854;SDS011;8543;54.522;18.550;2023-05-10T08:02:14;7.00;;;4.30;;
16854;SDS011;8543;54.522;18.550;2023-05-10T08:04:40;7.70;;;4.90;;
16854;SDS011;8543;54.522;18.550;2023-05-10T08:07:06;6.00;;;4.40;;
16854;SDS011;8543;54.522;18.550;2023-05-10T08:09:32;7.00;;;4.70;;
16854;SDS011;8543;54.522;18.550;2023-05-10T08:11:57;6.40;;;4.40;;
16854;SDS011;8543;54.522;18.550;2023-05-10T08:14:24;5.50;;;4.00;;
16854;SDS011;8543;54.522;18.550;2023-05-10T08:16:49;5.50;;;4.10;;
16854;SDS011;8543;54.522;18.550;2023-05-10T08:19:15;8.10;;;4.40;;
16854;SDS011;8543;54.522;18.550;2023-05-10T08:21:44;7.50;;;4.20;;
16854;SDS011;8543;54.522;18.550;2023-05-10T08:24:10;5.00;;;3.80;;
16854;SDS011;8543;54.522;18.550;2023-05-10T08:26:35;6.40;;;3.70;;
16854;SDS011;8543;54.522;18.550;2023-05-10T08:29:01;6.40;;;3.90;;
16854;SDS011;8543;54.522;18.550;2023-05-10T08:31:26;5.60;;;4.00;;
16854;SDS011;8543;54.522;18.550;2023-05-10T08:33:51;6.60;;;3.80;;
16854;SDS011;8543;54.522;18.550;2023-05-10T08:36:17;7.80;;;4.10;;
16854;SDS011;8543;54.522;18.550;2023-05-10T08:38:47;7.50;;;4.00;;
16854;SDS011;8543;54.522;18.550;2023-05-10T08:41:14;9.60;;;4.30;;
16854;SDS011;8543;54.522;18.550;2023-05-10T08:43:40;6.40;;;3.20;;
16854;SDS011;8543;54.522;18.550;2023-05-10T08:46:11;6.20;;;3.00;;
16854;SDS011;8543;54.522;18.550;2023-05-10T08:48:44;4.80;;;2.70;;
16854;SDS011;8543;54.522;18.550;2023-05-10T08:51:14;5.70;;;2.90;;
16854;SDS011;8543;54.522;18.550;2023-05-10T08:53:42;5.20;;;3.00;;
16854;SDS011;8543;54.522;18.550;2023-05-10T08:56:09;6.30;;;2.80;;
16854;SDS011;8543;54.522;18.550;2023-05-10T08:58:34;5.50;;;2.80;;
16854;SDS011;8543;54.522;18.550;2023-05-10T09:01:01;6.30;;;3.30;;
16854;SDS011;8543;54.522;18.550;2023-05-10T09:03:27;4.80;;;2.90;;
16854;SDS011;8543;54.522;18.550;2023-05-10T09:05:53;6.10;;;3.20;;
16854;SDS011;8543;54.522;18.550;2023-05-10T09:08:20;5.10;;;2.90;;
16854;SDS011;8543;54.522;18.550;2023-05-10T09:10:46;5.90;;;3.00;;
16854;SDS011;8543;54.522;18.550;2023-05-10T09:13:14;4.60;;;2.70;;
16854;SDS011;8543;54.522;18.550;2023-05-10T09:15:40;7.70;;;3.60;;
16854;SDS011;8543;54.522;18.550;2023-05-10T09:18:06;7.00;;;3.10;;
16854;SDS011;8543;54.522;18.550;2023-05-10T09:20:31;6.20;;;3.00;;
16854;SDS011;8543;54.522;18.550;2023-05-10T09:22:57;6.30;;;3.10;;
16854;SDS011;8543;54.522;18.550;2023-05-10T09:25:22;4.90;;;2.90;;
16854;SDS011;8543;54.522;18.550;2023-05-10T09:27:48;4.80;;;3.10;;
16854;SDS011;8543;54.522;18.550;2023-05-10T09:30:23;6.10;;;2.70;;
16854;SDS011;8543;54.522;18.550;2023-05-10T09:32:50;6.10;;;3.40;;
16854;SDS011;8543;54.522;18.550;2023-05-10T09:35:17;5.70;;;2.60;;
16854;SDS011;8543;54.522;18.550;2023-05-10T09:37:47;5.70;;;3.00;;
16854;SDS011;8543;54.522;18.550;2023-05-10T09:40:15;8.00;;;2.80;;
16854;SDS011;8543;54.522;18.550;2023-05-10T09:42:42;5.70;;;2.90;;
16854;SDS011;8543;54.522;18.550;2023-05-10T09:45:15;6.60;;;2.70;;
16854;SDS011;8543;54.522;18.550;2023-05-10T09:47:41;8.50;;;3.30;;
16854;SDS011;8543;54.522;18.550;2023-05-10T09:50:06;6.80;;;2.80;;
16854;SDS011;8543;54.522;18.550;2023-05-10T09:55:43;7.10;;;3.30;;
16854;SDS011;8543;54.522;18.550;2023-05-10T09:58:10;5.30;;;2.90;;
16854;SDS011;8543;54.522;18.550;2023-05-10T10:00:36;6.90;;;2.90;;
16854;SDS011;8543;54.522;18.550;2023-05-10T10:03:03;5.00;;;3.00;;
16854;SDS011;8543;54.522;18.550;2023-05-10T10:05:32;6.80;;;2.90;;
16854;SDS011;8543;54.522;18.550;2023-05-10T10:08:00;5.50;;;2.90;;
16854;SDS011;8543;54.522;18.550;2023-05-10T10:10:27;6.50;;;3.20;;
16854;SDS011;8543;54.522;18.550;2023-05-10T10:12:53;4.50;;;2.70;;
16854;SDS011;8543;54.522;18.550;2023-05-10T10:15:20;5.70;;;2.70;;
16854;SDS011;8543;54.522;18.550;2023-05-10T10:17:46;6.60;;;2.60;;
16854;SDS011;8543;54.522;18.550;2023-05-10T10:20:14;3.90;;;2.60;;
16854;SDS011;8543;54.522;18.550;2023-05-10T10:22:40;5.80;;;2.80;;
16854;SDS011;8543;54.522;18.550;2023-05-10T10:25:05;7.10;;;3.20;;
16854;SDS011;8543;54.522;18.550;2023-05-10T10:30:17;4.30;;;2.70;;
16854;SDS011;8543;54.522;18.550;2023-05-10T10:35:29;5.10;;;2.70;;
16854;SDS011;8543;54.522;18.550;2023-05-10T10:37:55;5.20;;;2.90;;
16854;SDS011;8543;54.522;18.550;2023-05-10T10:40:34;6.80;;;3.20;;
16854;SDS011;8543;54.522;18.550;2023-05-10T10:48:33;8.60;;;3.10;;
16854;SDS011;8543;54.522;18.550;2023-05-10T10:50:58;3.90;;;2.60;;
16854;SDS011;8543;54.522;18.550;2023-05-10T10:53:27;5.60;;;2.70;;
16854;SDS011;8543;54.522;18.550;2023-05-10T10:56:02;4.90;;;2.80;;
16854;SDS011;8543;54.522;18.550;2023-05-10T10:58:32;5.90;;;2.80;;
16854;SDS011;8543;54.522;18.550;2023-05-10T11:01:14;7.20;;;3.60;;
16854;SDS011;8543;54.522;18.550;2023-05-10T11:03:41;6.50;;;2.80;;
16854;SDS011;8543;54.522;18.550;2023-05-10T11:06:39;8.50;;;2.80;;
16854;SDS011;8543;54.522;18.550;2023-05-10T11:09:06;5.10;;;2.90;;
16854;SDS011;8543;54.522;18.550;2023-05-10T11:11:36;8.60;;;3.00;;
16854;SDS011;8543;54.522;18.550;2023-05-10T11:14:13;6.70;;;2.70;;
16854;SDS011;8543;54.522;18.550;2023-05-10T11:16:42;6.50;;;2.90;;
16854;SDS011;8543;54.522;18.550;2023-05-10T11:19:10;4.40;;;2.60;;
16854;SDS011;8543;54.522;18.550;2023-05-10T11:21:50;6.60;;;2.60;;
16854;SDS011;8543;54.522;18.550;2023-05-10T11:24:35;9.20;;;3.40;;
16854;SDS011;8543;54.522;18.550;2023-05-10T11:27:01;7.30;;;3.00;;
16854;SDS011;8543;54.522;18.550;2023-05-10T11:29:26;10.20;;;3.30;;
16854;SDS011;8543;54.522;18.550;2023-05-10T11:31:52;7.40;;;2.60;;
16854;SDS011;8543;54.522;18.550;2023-05-10T11:34:24;4.50;;;2.70;;
16854;SDS011;8543;54.522;18.550;2023-05-10T11:36:51;5.90;;;2.30;;
16854;SDS011;8543;54.522;18.550;2023-05-10T11:39:19;7.70;;;2.90;;
16854;SDS011;8543;54.522;18.550;2023-05-10T11:41:47;6.60;;;3.30;;
16854;SDS011;8543;54.522;18.550;2023-05-10T11:44:13;6.20;;;2.90;;
16854;SDS011;8543;54.522;18.550;2023-05-10T11:46:38;7.80;;;3.00;;
16854;SDS011;8543;54.522;18.550;2023-05-10T11:49:07;9.00;;;3.30;;
16854;SDS011;8543;54.522;18.550;2023-05-10T11:51:35;5.50;;;2.60;;
16854;SDS011;8543;54.522;18.550;2023-05-10T11:54:04;5.30;;;3.00;;
16854;SDS011;8543;54.522;18.550;2023-05-10T11:56:32;5.60;;;3.00;;
16854;SDS011;8543;54.522;18.550;2023-05-10T11:58:57;7.40;;;3.10;;
16854;SDS011;8543;54.522;18.550;2023-05-10T12:01:23;6.80;;;3.00;;
16854;SDS011;8543;54.522;18.550;2023-05-10T12:03:50;6.60;;;2.50;;
16854;SDS011;8543;54.522;18.550;2023-05-10T12:06:17;8.80;;;3.20;;
16854;SDS011;8543;54.522;18.550;2023-05-10T12:08:44;5.50;;;2.90;;
16854;SDS011;8543;54.522;18.550;2023-05-10T12:11:15;5.40;;;2.60;;
16854;SDS011;8543;54.522;18.550;2023-05-10T12:13:41;6.40;;;2.60;;
16854;SDS011;8543;54.522;18.550;2023-05-10T12:16:17;6.70;;;3.10;;
16854;SDS011;8543;54.522;18.550;2023-05-10T12:18:57;6.20;;;3.30;;
16854;SDS011;8543;54.522;18.550;2023-05-10T12:21:24;8.00;;;2.90;;
16854;SDS011;8543;54.522;18.550;2023-05-10T12:23:51;10.00;;;3.50;;
16854;SDS011;8543;54.522;18.550;2023-05-10T12:26:18;5.90;;;3.00;;
16854;SDS011;8543;54.522;18.550;2023-05-10T12:28:46;6.60;;;3.40;;
16854;SDS011;8543;54.522;18.550;2023-05-10T12:31:11;6.90;;;2.80;;
16854;SDS011;8543;54.522;18.550;2023-05-10T12:33:40;6.20;;;2.70;;
16854;SDS011;8543;54.522;18.550;2023-05-10T12:36:08;5.80;;;2.70;;
16854;SDS011;8543;54.522;18.550;2023-05-10T12:38:38;5.80;;;2.70;;
16854;SDS011;8543;54.522;18.550;2023-05-10T12:41:08;7.40;;;3.30;;
16854;SDS011;8543;54.522;18.550;2023-05-10T12:43:35;5.90;;;3.00;;
16854;SDS011;8543;54.522;18.550;2023-05-10T12:46:04;7.00;;;3.00;;
16854;SDS011;8543;54.522;18.550;2023-05-10T12:48:31;5.90;;;3.00;;
16854;SDS011;8543;54.522;18.550;2023-05-10T12:50:58;6.90;;;3.30;;
16854;SDS011;8543;54.522;18.550;2023-05-10T12:53:24;7.60;;;3.40;;
16854;SDS011;8543;54.522;18.550;2023-05-10T12:55:50;4.80;;;2.90;;
16854;SDS011;8543;54.522;18.550;2023-05-10T12:58:15;3.90;;;2.40;;
16854;SDS011;8543;54.522;18.550;2023-05-10T13:00:41;6.20;;;2.80;;
16854;SDS011;8543;54.522;18.550;2023-05-10T13:03:06;6.60;;;3.10;;
16854;SDS011;8543;54.522;18.550;2023-05-10T13:05:32;8.40;;;3.00;;
16854;SDS011;8543;54.522;18.550;2023-05-10T13:07:58;5.60;;;2.90;;
16854;SDS011;8543;54.522;18.550;2023-05-10T13:10:23;6.20;;;3.40;;
16854;SDS011;8543;54.522;18.550;2023-05-10T13:12:50;6.90;;;3.10;;
16854;SDS011;8543;54.522;18.550;2023-05-10T13:15:15;5.60;;;3.00;;
16854;SDS011;8543;54.522;18.550;2023-05-10T13:17:42;7.50;;;3.00;;
16854;SDS011;8543;54.522;18.550;2023-05-10T13:20:07;6.90;;;3.00;;
16854;SDS011;8543;54.522;18.550;2023-05-10T13:22:34;4.80;;;2.80;;
16854;SDS011;8543;54.522;18.550;2023-05-10T13:25:00;6.40;;;3.10;;
16854;SDS011;8543;54.522;18.550;2023-05-10T13:27:26;4.50;;;3.00;;
16854;SDS011;8543;54.522;18.550;2023-05-10T13:29:53;7.00;;;2.70;;
16854;SDS011;8543;54.522;18.550;2023-05-10T13:32:19;7.30;;;3.00;;
16854;SDS011;8543;54.522;18.550;2023-05-10T13:34:45;7.10;;;2.70;;
16854;SDS011;8543;54.522;18.550;2023-05-10T13:37:10;7.70;;;3.60;;
16854;SDS011;8543;54.522;18.550;2023-05-10T13:39:36;6.00;;;2.60;;
16854;SDS011;8543;54.522;18.550;2023-05-10T13:42:02;6.40;;;2.70;;
16854;SDS011;8543;54.522;18.550;2023-05-10T13:44:31;7.10;;;3.00;;
16854;SDS011;8543;54.522;18.550;2023-05-10T13:46:59;6.10;;;2.70;;
16854;SDS011;8543;54.522;18.550;2023-05-10T13:49:24;6.50;;;2.70;;
16854;SDS011;8543;54.522;18.550;2023-05-10T13:51:50;6.10;;;2.70;;
16854;SDS011;8543;54.522;18.550;2023-05-10T13:54:17;12.20;;;3.10;;
16854;SDS011;8543;54.522;18.550;2023-05-10T13:56:44;11.40;;;3.60;;
16854;SDS011;8543;54.522;18.550;2023-05-10T13:59:12;6.10;;;3.00;;
16854;SDS011;8543;54.522;18.550;2023-05-10T14:01:39;6.10;;;2.70;;
16854;SDS011;8543;54.522;18.550;2023-05-10T14:04:10;4.90;;;3.10;;
16854;SDS011;8543;54.522;18.550;2023-05-10T14:06:36;6.50;;;3.20;;
16854;SDS011;8543;54.522;18.550;2023-05-10T14:09:02;6.70;;;2.90;;
16854;SDS011;8543;54.522;18.550;2023-05-10T14:11:28;6.70;;;2.90;;
16854;SDS011;8543;54.522;18.550;2023-05-10T14:13:54;4.10;;;2.60;;
16854;SDS011;8543;54.522;18.550;2023-05-10T14:16:20;8.10;;;3.00;;
16854;SDS011;8543;54.522;18.550;2023-05-10T14:18:46;7.00;;;3.10;;
16854;SDS011;8543;54.522;18.550;2023-05-10T14:21:12;7.20;;;2.90;;
16854;SDS011;8543;54.522;18.550;2023-05-10T14:23:38;8.90;;;2.80;;
16854;SDS011;8543;54.522;18.550;2023-05-10T14:26:04;7.50;;;2.90;;
16854;SDS011;8543;54.522;18.550;2023-05-10T14:28:30;4.70;;;2.60;;
16854;SDS011;8543;54.522;18.550;2023-05-10T14:30:55;8.70;;;3.10;;
16854;SDS011;8543;54.522;18.550;2023-05-10T14:33:21;7.80;;;3.20;;
16854;SDS011;8543;54.522;18.550;2023-05-10T14:35:47;4.70;;;2.60;;
16854;SDS011;8543;54.522;18.550;2023-05-10T14:38:13;7.80;;;2.90;;
16854;SDS011;8543;54.522;18.550;2023-05-10T14:40:39;6.00;;;2.70;;
16854;SDS011;8543;54.522;18.550;2023-05-10T14:43:04;6.20;;;2.90;;
16854;SDS011;8543;54.522;18.550;2023-05-10T14:45:30;8.30;;;2.90;;
16854;SDS011;8543;54.522;18.550;2023-05-10T14:47:56;7.30;;;3.30;;
16854;SDS011;8543;54.522;18.550;2023-05-10T14:50:23;5.70;;;2.50;;
16854;SDS011;8543;54.522;18.550;2023-05-10T14:52:48;8.10;;;2.80;;
16854;SDS011;8543;54.522;18.550;2023-05-10T14:55:14;6.10;;;2.80;;
16854;SDS011;8543;54.522;18.550;2023-05-10T14:57:43;5.40;;;2.90;;
16854;SDS011;8543;54.522;18.550;2023-05-10T15:00:09;6.90;;;2.90;;
16854;SDS011;8543;54.522;18.550;2023-05-10T15:02:35;3.60;;;2.50;;
16854;SDS011;8543;54.522;18.550;2023-05-10T15:05:01;5.90;;;2.70;;
16854;SDS011;8543;54.522;18.550;2023-05-10T15:07:26;6.70;;;2.80;;
16854;SDS011;8543;54.522;18.550;2023-05-10T15:09:51;6.50;;;2.90;;
16854;SDS011;8543;54.522;18.550;2023-05-10T15:12:18;5.90;;;2.30;;
16854;SDS011;8543;54.522;18.550;2023-05-10T15:14:44;9.00;;;3.10;;
16854;SDS011;8543;54.522;18.550;2023-05-10T15:17:09;7.00;;;2.90;;
16854;SDS011;8543;54.522;18.550;2023-05-10T15:19:35;5.00;;;2.70;;